createdAt,value
2018-12-03T00:08:40.446Z,88.90
2018-12-03T00:18:43.729Z,89.00
2018-12-03T00:28:46.942Z,89.50
2018-12-03T00:38:50.170Z,89.40
2018-12-03T00:48:53.419Z,89.60
2018-12-03T00:58:56.650Z,89.80
2018-12-03T01:08:59.875Z,89.60
2018-12-03T01:19:03.118Z,89.60
2018-12-03T01:29:06.334Z,89.80
2018-12-03T01:39:09.835Z,90.10
2018-12-03T01:49:13.054Z,89.70
2018-12-03T01:59:16.290Z,90.00
2018-12-03T02:09:19.515Z,90.40
2018-12-03T02:19:23.267Z,90.40
2018-12-03T02:29:26.498Z,90.30
2018-12-03T02:39:29.724Z,90.20
2018-12-03T02:49:32.932Z,90.00
2018-12-03T02:59:36.174Z,89.20
2018-12-03T03:09:40.091Z,88.90
2018-12-03T03:19:43.307Z,88.70
2018-12-03T03:29:46.528Z,88.50
2018-12-03T03:39:49.782Z,88.30
2018-12-03T03:49:53.015Z,88.10
2018-12-03T03:59:56.447Z,87.80
2018-12-03T04:09:59.682Z,87.90
2018-12-03T04:20:03.312Z,87.60
2018-12-03T04:30:13.910Z,87.90
2018-12-03T04:40:17.431Z,87.90
2018-12-03T04:50:21.787Z,88.40
2018-12-03T05:00:25.331Z,89.20
2018-12-03T05:10:28.559Z,89.70
2018-12-03T05:20:31.771Z,89.70
2018-12-03T05:30:34.997Z,89.90
2018-12-03T05:40:38.367Z,90.00
2018-12-03T05:50:41.583Z,89.80
2018-12-03T06:00:44.862Z,89.90
2018-12-03T06:10:48.087Z,90.00
2018-12-03T06:20:51.317Z,90.20
2018-12-03T06:30:54.544Z,90.10
2018-12-03T06:40:57.763Z,90.00
2018-12-03T06:51:01.920Z,89.60
2018-12-03T07:01:05.779Z,89.10
2018-12-03T07:11:09.067Z,88.80
2018-12-03T07:21:13.100Z,88.80
2018-12-03T07:31:16.311Z,89.00
2018-12-03T07:41:19.535Z,88.20
2018-12-03T07:51:22.776Z,88.10
2018-12-03T08:01:26.020Z,88.00
2018-12-03T08:11:29.254Z,87.70
2018-12-03T08:21:32.478Z,87.90
2018-12-03T08:31:35.687Z,87.70
2018-12-03T08:41:38.939Z,87.30
2018-12-03T08:51:42.278Z,86.40
2018-12-03T09:01:45.648Z,86.30
2018-12-03T09:11:50.510Z,86.30
2018-12-03T09:21:53.885Z,86.60
2018-12-03T09:31:57.186Z,87.00
2018-12-03T09:42:00.417Z,87.30
2018-12-03T09:52:04.484Z,87.20
2018-12-03T10:02:07.899Z,87.60
2018-12-03T10:12:11.853Z,87.50
2018-12-03T10:22:15.207Z,87.80
2018-12-03T10:32:19.835Z,87.40
2018-12-03T10:42:23.136Z,87.10
2018-12-03T10:52:26.454Z,86.90
2018-12-03T11:02:37.471Z,87.30
2018-12-03T11:12:40.862Z,86.70
2018-12-03T11:22:45.007Z,86.40
2018-12-03T11:32:48.491Z,84.70
2018-12-03T11:42:52.434Z,83.80
2018-12-03T11:52:55.735Z,82.80
2018-12-03T12:03:00.549Z,81.40
2018-12-03T12:13:03.990Z,79.90
2018-12-03T12:23:07.315Z,78.10
2018-12-03T12:33:10.831Z,77.00
2018-12-03T12:43:14.331Z,76.40
2018-12-03T12:53:17.693Z,77.00
2018-12-03T13:03:20.995Z,77.50
2018-12-03T13:13:24.358Z,78.70
2018-12-03T13:23:27.583Z,80.00
2018-12-03T13:33:30.791Z,80.80
2018-12-03T13:43:34.007Z,81.00
2018-12-03T13:53:37.339Z,81.20
2018-12-03T14:03:41.091Z,80.90
2018-12-03T14:14:30.350Z,80.70
2018-12-03T14:24:33.570Z,80.50
2018-12-03T14:34:36.795Z,80.80
2018-12-03T14:44:40.070Z,81.30
2018-12-03T14:54:43.364Z,82.10
2018-12-03T15:04:46.610Z,82.90
2018-12-03T15:14:49.854Z,82.90
2018-12-03T15:24:53.096Z,83.00
2018-12-03T15:34:56.328Z,83.20
2018-12-03T15:44:59.584Z,83.40
2018-12-03T15:55:02.973Z,83.30
2018-12-03T16:05:09.396Z,84.00
2018-12-03T16:15:12.827Z,83.70
2018-12-03T16:25:16.281Z,83.60
2018-12-03T16:35:19.672Z,83.60
2018-12-03T16:45:23.155Z,84.00
2018-12-03T16:55:26.544Z,84.20
2018-12-03T17:05:30.124Z,84.50
2018-12-03T17:15:33.464Z,84.40
2018-12-03T17:25:36.800Z,85.20
2018-12-03T17:35:40.164Z,85.40
2018-12-03T17:45:43.518Z,86.00
2018-12-03T17:55:46.851Z,86.50
2018-12-03T18:05:50.206Z,86.80
2018-12-03T18:15:53.587Z,86.70
2018-12-03T18:25:57.199Z,85.60
2018-12-03T18:36:00.911Z,86.40
2018-12-03T18:46:04.548Z,86.40
2018-12-03T18:56:08.137Z,86.80
2018-12-03T19:06:11.487Z,86.90
2018-12-03T19:16:14.834Z,87.20
2018-12-03T19:26:18.192Z,87.40
2018-12-03T19:36:21.533Z,87.70
2018-12-03T19:46:24.859Z,87.70
2018-12-03T19:56:28.235Z,87.90
2018-12-03T20:06:31.815Z,88.00
2018-12-03T20:16:35.494Z,88.90
2018-12-03T20:26:46.847Z,88.40
2018-12-03T20:36:59.475Z,88.40
2018-12-03T20:47:11.691Z,88.90
2018-12-03T20:57:14.948Z,88.20
2018-12-03T21:07:50.937Z,87.90
2018-12-03T21:17:53.382Z,87.30
2018-12-03T21:27:55.847Z,86.40
2018-12-03T21:37:58.536Z,85.10
2018-12-03T21:48:00.993Z,85.60
2018-12-03T21:58:03.455Z,85.10
2018-12-03T22:08:06.096Z,84.80
2018-12-03T22:18:08.559Z,85.10
2018-12-03T22:28:11.022Z,84.70
2018-12-03T22:38:13.662Z,84.70
2018-12-03T22:48:16.161Z,84.30
2018-12-03T22:58:18.640Z,84.10
2018-12-03T23:08:22.382Z,84.20
2018-12-03T23:18:24.894Z,83.70
2018-12-03T23:28:27.351Z,83.60
2018-12-03T23:38:29.810Z,82.70
2018-12-03T23:48:32.280Z,82.20
2018-12-03T23:58:34.743Z,82.80
